Aguada Cecilio, Argentina
Current Conditions -  °F | °C
As of 4:00 AM on Tuesday 21 Oct 2014 (Local Time) from SAZN Reporting Station
Clear Clear  
Wind Chill: 15°   Ceiling: Unl
Heat Index: 15°   Visibility: 6mi
Dew Point:   Wind: 0mph
Humidity: 63%   Direction: NA
Pressure: 29.88"   Gusts: NA
Location:  40.65°S, 66.96°W
Report Text: SAZN 210700Z 00000KT CAVOK 15/08 Q1012
Loading
Personal Weather Stations






























Interactive Weather Map
Tropical Storm Tracking
New forecast layout! Learn more

10-Day Weather Forecast

Advertisements
Track Severe Weather on mobile